Neuburg — 5BQJ2 — position and weather

sailwx.info

Track history (hours):
 
Tides and Currents Weather Stations Pressure Air Temp Water Temp Dewpoint Dewpoint Depression Visibility Wind Speed Wind Dir Waves Ship Positions

Neuburg

Last reported at 2015-May-30 20:33 UTC. Time now 2015-May-30 22:25 UTC.
Position N 36°19' W 002°36'.

Length 142 m; draft 6.1 m.

Type: Cargo ship. MMSI: 212740000.

Date/timePositionNaut miles runAvg speedWind from/ knotsBaromVisibWave heightAir tempDewpointWater temp
2015-May-30 20:33N 36°19' W 002°36'12512.0
2015-May-30 10:08N 36°00' W 005°09'1119.4
2015-May-30 09:33N 35°58' W 005°23'  
2015-May-28 00:33N 28°32' W 014°34'1212.5
2015-May-27 23:33N 28°26' W 014°46'1312.8
2015-May-27 22:33N 28°20' W 014°59'1312.8
2015-May-27 21:33N 28°13' W 015°11'1212.5
2015-May-27 20:33N 28°07' W 015°23'2 1.9
2015-May-27 19:26N 28°08' W 015°25'0 0.0
2015-May-27 18:26N 28°08' W 015°25'0 0.0
2015-May-27 17:26N 28°08' W 015°25'0 0.0
2015-May-27 16:26N 28°08' W 015°25'0 0.0
2015-May-27 15:26N 28°08' W 015°25'0 0.0
2015-May-27 14:29N 28°08' W 015°25'0 0.0
2015-May-27 13:29N 28°08' W 015°25'0 0.0
2015-May-27 12:29N 28°08' W 015°25'0 0.0
2015-May-27 11:29N 28°08' W 015°25'0 0.0
2015-May-27 10:29N 28°08' W 015°25'0 0.0
2015-May-27 09:32N 28°08' W 015°25'0 0.0
2015-May-27 08:32N 28°08' W 015°25'0 0.0
2015-May-27 07:32N 28°08' W 015°25'0 0.0
2015-May-27 06:32N 28°08' W 015°25'0 0.0
2015-May-27 05:32N 28°08' W 015°25'0 0.0
2015-May-27 04:32N 28°08' W 015°25'0 0.0
2015-May-27 03:29N 28°08' W 015°25'0 0.0
2015-May-27 02:32N 28°08' W 015°25'0 0.0
2015-May-27 01:32N 28°08' W 015°25'0 0.0
2015-May-27 00:17N 28°08' W 015°25'0 0.0
2015-May-26 23:20N 28°08' W 015°25'0 0.0
2015-May-26 22:33N 28°08' W 015°25'3 2.8
2015-May-26 21:33N 28°08' W 015°22'10 9.7
2015-May-26 20:33N 28°14' W 015°31'1212.3
2015-May-26 19:33N 28°15' W 015°45'1211.9
2015-May-26 18:32N 28°17' W 015°59'1313.2
2015-May-26 17:32N 28°25' W 016°10'5 4.0
2015-May-26 16:16N 28°29' W 016°13'0 0.0
2015-May-26 08:15N 28°29' W 016°13'0 0.0
2015-May-26 07:30N 28°29' W 016°13'0 0.0
2015-May-26 06:09N 28°29' W 016°13'2 3.8
2015-May-26 05:33N 28°28' W 016°11'1010.3
2015-May-26 04:33N 28°33' W 016°01'1110.9
2015-May-26 03:33N 28°40' W 015°51'1211.9
2015-May-26 02:33N 28°48' W 015°41'1414.3
2015-May-26 01:33N 28°58' W 015°29'1916.4
2015-May-26 00:25N 29°10' W 015°13'64416.5
2015-May-24 09:29N 36°00' W 005°24'12416.9
2015-May-24 02:09N 36°25' W 002°54'1117.7
2015-May-24 01:33N 36°25' W 002°40'8916.6
2015-May-23 20:12N 37°12' W 001°06'1117.0
2015-May-23 19:33N 37°19' W 000°55'1717.4
2015-May-23 18:33N 37°30' W 000°39'1616.2
2015-May-23 17:33N 37°44' W 000°29'1717.0
2015-May-23 16:33N 38°01' W 000°24'  
Track history (hours):
 
Tides and Currents Weather Stations Pressure Air Temp Water Temp Dewpoint Dewpoint Depression Visibility Wind Speed Wind Dir Waves Ship Positions

Neuburg

Last reported at 2015-May-30 20:33 UTC. Time now 2015-May-30 22:25 UTC.
Position N 36°19' W 002°36'.

Length 142 m; draft 6.1 m.

Type: Cargo ship. MMSI: 212740000.

Date/timePositionNaut miles runAvg speedWind from/ knotsBaromVisibWave heightAir tempDewpointWater temp
2015-May-30 20:33N 36°19' W 002°36'12512.0
2015-May-30 10:08N 36°00' W 005°09'1119.4
2015-May-30 09:33N 35°58' W 005°23'  
2015-May-28 00:33N 28°32' W 014°34'1212.5
2015-May-27 23:33N 28°26' W 014°46'1312.8
2015-May-27 22:33N 28°20' W 014°59'1312.8
2015-May-27 21:33N 28°13' W 015°11'1212.5
2015-May-27 20:33N 28°07' W 015°23'2 1.9
2015-May-27 19:26N 28°08' W 015°25'0 0.0
2015-May-27 18:26N 28°08' W 015°25'0 0.0
2015-May-27 17:26N 28°08' W 015°25'0 0.0
2015-May-27 16:26N 28°08' W 015°25'0 0.0
2015-May-27 15:26N 28°08' W 015°25'0 0.0
2015-May-27 14:29N 28°08' W 015°25'0 0.0
2015-May-27 13:29N 28°08' W 015°25'0 0.0
2015-May-27 12:29N 28°08' W 015°25'0 0.0
2015-May-27 11:29N 28°08' W 015°25'0 0.0
2015-May-27 10:29N 28°08' W 015°25'0 0.0
2015-May-27 09:32N 28°08' W 015°25'0 0.0
2015-May-27 08:32N 28°08' W 015°25'0 0.0
2015-May-27 07:32N 28°08' W 015°25'0 0.0
2015-May-27 06:32N 28°08' W 015°25'0 0.0
2015-May-27 05:32N 28°08' W 015°25'0 0.0
2015-May-27 04:32N 28°08' W 015°25'0 0.0
2015-May-27 03:29N 28°08' W 015°25'0 0.0
2015-May-27 02:32N 28°08' W 015°25'0 0.0
2015-May-27 01:32N 28°08' W 015°25'0 0.0
2015-May-27 00:17N 28°08' W 015°25'0 0.0
2015-May-26 23:20N 28°08' W 015°25'0 0.0
2015-May-26 22:33N 28°08' W 015°25'3 2.8
2015-May-26 21:33N 28°08' W 015°22'10 9.7
2015-May-26 20:33N 28°14' W 015°31'1212.3
2015-May-26 19:33N 28°15' W 015°45'1211.9
2015-May-26 18:32N 28°17' W 015°59'1313.2
2015-May-26 17:32N 28°25' W 016°10'5 4.0
2015-May-26 16:16N 28°29' W 016°13'0 0.0
2015-May-26 08:15N 28°29' W 016°13'0 0.0
2015-May-26 07:30N 28°29' W 016°13'0 0.0
2015-May-26 06:09N 28°29' W 016°13'2 3.8
2015-May-26 05:33N 28°28' W 016°11'1010.3
2015-May-26 04:33N 28°33' W 016°01'1110.9
2015-May-26 03:33N 28°40' W 015°51'1211.9
2015-May-26 02:33N 28°48' W 015°41'1414.3
2015-May-26 01:33N 28°58' W 015°29'1916.4
2015-May-26 00:25N 29°10' W 015°13'64416.5
2015-May-24 09:29N 36°00' W 005°24'12416.9
2015-May-24 02:09N 36°25' W 002°54'1117.7
2015-May-24 01:33N 36°25' W 002°40'8916.6
2015-May-23 20:12N 37°12' W 001°06'1117.0
2015-May-23 19:33N 37°19' W 000°55'1717.4
2015-May-23 18:33N 37°30' W 000°39'1616.2
2015-May-23 17:33N 37°44' W 000°29'1717.0
2015-May-23 16:33N 38°01' W 000°24'  

Dump ship's entire track history